sensor_id;sensor_type;location;lat;lon;timestamp;P1;durP1;ratioP1;P2;durP2;ratioP2
22963;SDS011;11648;49.306;6.934;2023-07-28T00:00:39;4.30;;;2.47;;
22963;SDS011;11648;49.306;6.934;2023-07-28T00:03:06;4.73;;;2.77;;
22963;SDS011;11648;49.306;6.934;2023-07-28T00:05:32;4.90;;;2.70;;
22963;SDS011;11648;49.306;6.934;2023-07-28T00:07:59;4.47;;;2.77;;
22963;SDS011;11648;49.306;6.934;2023-07-28T00:10:26;5.03;;;2.80;;
22963;SDS011;11648;49.306;6.934;2023-07-28T00:12:53;4.30;;;2.87;;
22963;SDS011;11648;49.306;6.934;2023-07-28T00:15:19;5.40;;;3.00;;
22963;SDS011;11648;49.306;6.934;2023-07-28T00:17:46;4.07;;;2.90;;
22963;SDS011;11648;49.306;6.934;2023-07-28T00:20:13;3.83;;;2.90;;
22963;SDS011;11648;49.306;6.934;2023-07-28T00:22:40;4.47;;;3.10;;
22963;SDS011;11648;49.306;6.934;2023-07-28T00:25:06;4.20;;;3.03;;
22963;SDS011;11648;49.306;6.934;2023-07-28T00:27:33;5.23;;;3.10;;
22963;SDS011;11648;49.306;6.934;2023-07-28T00:30:00;5.20;;;3.13;;
22963;SDS011;11648;49.306;6.934;2023-07-28T00:32:27;4.90;;;3.40;;
22963;SDS011;11648;49.306;6.934;2023-07-28T00:34:54;5.10;;;3.20;;
22963;SDS011;11648;49.306;6.934;2023-07-28T00:37:21;4.90;;;3.37;;
22963;SDS011;11648;49.306;6.934;2023-07-28T00:39:47;4.67;;;3.30;;
22963;SDS011;11648;49.306;6.934;2023-07-28T00:42:14;5.33;;;3.43;;
22963;SDS011;11648;49.306;6.934;2023-07-28T00:44:41;5.97;;;3.37;;
22963;SDS011;11648;49.306;6.934;2023-07-28T00:47:07;5.73;;;3.27;;
22963;SDS011;11648;49.306;6.934;2023-07-28T00:49:34;4.30;;;3.60;;
22963;SDS011;11648;49.306;6.934;2023-07-28T00:52:01;5.50;;;3.30;;
22963;SDS011;11648;49.306;6.934;2023-07-28T00:54:29;4.70;;;3.30;;
22963;SDS011;11648;49.306;6.934;2023-07-28T00:56:55;4.50;;;3.40;;
22963;SDS011;11648;49.306;6.934;2023-07-28T00:59:22;4.97;;;3.27;;
22963;SDS011;11648;49.306;6.934;2023-07-28T01:01:50;6.73;;;3.53;;
22963;SDS011;11648;49.306;6.934;2023-07-28T01:04:17;4.67;;;3.23;;
22963;SDS011;11648;49.306;6.934;2023-07-28T01:12:32;4.03;;;3.13;;
22963;SDS011;11648;49.306;6.934;2023-07-28T01:14:59;4.03;;;2.83;;
22963;SDS011;11648;49.306;6.934;2023-07-28T01:17:25;3.77;;;2.77;;
22963;SDS011;11648;49.306;6.934;2023-07-28T01:19:52;4.63;;;3.10;;
22963;SDS011;11648;49.306;6.934;2023-07-28T01:27:42;3.60;;;2.70;;
22963;SDS011;11648;49.306;6.934;2023-07-28T01:30:10;3.90;;;2.83;;
22963;SDS011;11648;49.306;6.934;2023-07-28T01:32:37;3.87;;;3.00;;
22963;SDS011;11648;49.306;6.934;2023-07-28T01:35:05;4.53;;;3.03;;
22963;SDS011;11648;49.306;6.934;2023-07-28T01:37:32;5.93;;;3.10;;
22963;SDS011;11648;49.306;6.934;2023-07-28T01:39:59;3.23;;;2.40;;
22963;SDS011;11648;49.306;6.934;2023-07-28T01:42:25;3.30;;;2.53;;
22963;SDS011;11648;49.306;6.934;2023-07-28T01:44:52;3.83;;;2.57;;
22963;SDS011;11648;49.306;6.934;2023-07-28T01:47:19;3.80;;;2.33;;
22963;SDS011;11648;49.306;6.934;2023-07-28T01:49:46;4.77;;;2.67;;
22963;SDS011;11648;49.306;6.934;2023-07-28T01:52:12;3.60;;;2.27;;
22963;SDS011;11648;49.306;6.934;2023-07-28T01:54:39;3.93;;;2.53;;
22963;SDS011;11648;49.306;6.934;2023-07-28T01:57:06;4.20;;;2.40;;
22963;SDS011;11648;49.306;6.934;2023-07-28T01:59:32;4.10;;;2.53;;
22963;SDS011;11648;49.306;6.934;2023-07-28T02:01:59;3.60;;;2.00;;
22963;SDS011;11648;49.306;6.934;2023-07-28T02:04:26;3.07;;;2.00;;
22963;SDS011;11648;49.306;6.934;2023-07-28T02:06:53;3.53;;;2.00;;
22963;SDS011;11648;49.306;6.934;2023-07-28T02:09:21;3.70;;;2.13;;
22963;SDS011;11648;49.306;6.934;2023-07-28T02:11:48;4.03;;;2.07;;
22963;SDS011;11648;49.306;6.934;2023-07-28T02:14:14;3.10;;;2.00;;
22963;SDS011;11648;49.306;6.934;2023-07-28T02:16:41;2.73;;;1.80;;
22963;SDS011;11648;49.306;6.934;2023-07-28T02:19:08;3.37;;;1.80;;
22963;SDS011;11648;49.306;6.934;2023-07-28T02:21:35;2.92;;;1.98;;
22963;SDS011;11648;49.306;6.934;2023-07-28T02:24:01;2.83;;;1.80;;
22963;SDS011;11648;49.306;6.934;2023-07-28T02:26:28;3.63;;;1.90;;
22963;SDS011;11648;49.306;6.934;2023-07-28T02:28:55;4.23;;;1.70;;
22963;SDS011;11648;49.306;6.934;2023-07-28T02:31:22;2.90;;;1.53;;
22963;SDS011;11648;49.306;6.934;2023-07-28T02:33:49;2.73;;;1.60;;
22963;SDS011;11648;49.306;6.934;2023-07-28T02:36:15;2.63;;;1.43;;
22963;SDS011;11648;49.306;6.934;2023-07-28T02:38:42;3.17;;;1.60;;
22963;SDS011;11648;49.306;6.934;2023-07-28T02:41:09;2.97;;;1.43;;
22963;SDS011;11648;49.306;6.934;2023-07-28T02:43:36;2.37;;;1.57;;
22963;SDS011;11648;49.306;6.934;2023-07-28T02:46:03;2.40;;;1.50;;
22963;SDS011;11648;49.306;6.934;2023-07-28T02:48:29;2.70;;;1.67;;
22963;SDS011;11648;49.306;6.934;2023-07-28T02:50:56;2.50;;;1.50;;
22963;SDS011;11648;49.306;6.934;2023-07-28T02:53:23;2.13;;;1.50;;
22963;SDS011;11648;49.306;6.934;2023-07-28T02:55:51;3.60;;;1.40;;
22963;SDS011;11648;49.306;6.934;2023-07-28T02:58:17;2.87;;;1.43;;
22963;SDS011;11648;49.306;6.934;2023-07-28T03:00:44;2.03;;;1.27;;
22963;SDS011;11648;49.306;6.934;2023-07-28T03:03:17;1.40;;;0.90;;
22963;SDS011;11648;49.306;6.934;2023-07-28T03:05:44;2.10;;;1.10;;
22963;SDS011;11648;49.306;6.934;2023-07-28T03:08:17;2.33;;;1.20;;
22963;SDS011;11648;49.306;6.934;2023-07-28T03:10:43;3.53;;;1.30;;
22963;SDS011;11648;49.306;6.934;2023-07-28T03:13:10;1.63;;;0.90;;
22963;SDS011;11648;49.306;6.934;2023-07-28T03:15:37;2.57;;;1.20;;
22963;SDS011;11648;49.306;6.934;2023-07-28T03:18:05;1.70;;;1.10;;
22963;SDS011;11648;49.306;6.934;2023-07-28T03:20:31;2.40;;;0.97;;
22963;SDS011;11648;49.306;6.934;2023-07-28T03:22:58;2.73;;;1.10;;
22963;SDS011;11648;49.306;6.934;2023-07-28T03:25:25;2.20;;;1.30;;
22963;SDS011;11648;49.306;6.934;2023-07-28T03:27:53;2.67;;;1.30;;
22963;SDS011;11648;49.306;6.934;2023-07-28T03:30:19;1.90;;;1.20;;
22963;SDS011;11648;49.306;6.934;2023-07-28T03:32:46;3.97;;;1.00;;
22963;SDS011;11648;49.306;6.934;2023-07-28T03:35:13;2.73;;;1.40;;
22963;SDS011;11648;49.306;6.934;2023-07-28T03:37:45;2.70;;;1.43;;
22963;SDS011;11648;49.306;6.934;2023-07-28T03:40:12;1.77;;;1.10;;
22963;SDS011;11648;49.306;6.934;2023-07-28T03:42:47;2.10;;;1.20;;
22963;SDS011;11648;49.306;6.934;2023-07-28T03:45:14;3.20;;;1.47;;
22963;SDS011;11648;49.306;6.934;2023-07-28T03:47:41;1.90;;;1.20;;
22963;SDS011;11648;49.306;6.934;2023-07-28T03:50:08;1.90;;;1.20;;
22963;SDS011;11648;49.306;6.934;2023-07-28T03:52:35;2.23;;;1.30;;
22963;SDS011;11648;49.306;6.934;2023-07-28T03:55:02;2.20;;;1.40;;
22963;SDS011;11648;49.306;6.934;2023-07-28T03:57:29;3.17;;;1.70;;
22963;SDS011;11648;49.306;6.934;2023-07-28T03:59:56;2.73;;;1.50;;
22963;SDS011;11648;49.306;6.934;2023-07-28T04:02:23;2.20;;;1.40;;
22963;SDS011;11648;49.306;6.934;2023-07-28T04:04:53;3.93;;;1.60;;
22963;SDS011;11648;49.306;6.934;2023-07-28T04:07:21;3.87;;;1.43;;
22963;SDS011;11648;49.306;6.934;2023-07-28T04:09:48;2.40;;;1.50;;
22963;SDS011;11648;49.306;6.934;2023-07-28T04:12:14;2.77;;;1.40;;
22963;SDS011;11648;49.306;6.934;2023-07-28T04:14:41;3.33;;;1.50;;
22963;SDS011;11648;49.306;6.934;2023-07-28T04:17:08;3.00;;;1.40;;
22963;SDS011;11648;49.306;6.934;2023-07-28T04:19:36;4.03;;;1.43;;
22963;SDS011;11648;49.306;6.934;2023-07-28T04:22:03;3.93;;;1.57;;
22963;SDS011;11648;49.306;6.934;2023-07-28T04:24:31;2.77;;;1.53;;
22963;SDS011;11648;49.306;6.934;2023-07-28T04:26:58;2.87;;;1.70;;
22963;SDS011;11648;49.306;6.934;2023-07-28T04:29:25;3.00;;;1.60;;
22963;SDS011;11648;49.306;6.934;2023-07-28T04:31:53;2.50;;;1.53;;
22963;SDS011;11648;49.306;6.934;2023-07-28T04:34:27;2.97;;;1.83;;
22963;SDS011;11648;49.306;6.934;2023-07-28T04:37:13;2.40;;;1.50;;
22963;SDS011;11648;49.306;6.934;2023-07-28T04:40:00;4.43;;;1.70;;
22963;SDS011;11648;49.306;6.934;2023-07-28T04:42:32;2.63;;;1.43;;
22963;SDS011;11648;49.306;6.934;2023-07-28T04:44:59;2.63;;;1.60;;
22963;SDS011;11648;49.306;6.934;2023-07-28T04:47:26;3.80;;;1.60;;
22963;SDS011;11648;49.306;6.934;2023-07-28T04:49:53;3.73;;;1.63;;
22963;SDS011;11648;49.306;6.934;2023-07-28T04:52:38;3.37;;;1.47;;
22963;SDS011;11648;49.306;6.934;2023-07-28T04:55:24;2.23;;;1.30;;
22963;SDS011;11648;49.306;6.934;2023-07-28T04:57:51;2.23;;;1.50;;
22963;SDS011;11648;49.306;6.934;2023-07-28T05:00:19;2.87;;;1.30;;
22963;SDS011;11648;49.306;6.934;2023-07-28T05:02:45;2.17;;;1.33;;
22963;SDS011;11648;49.306;6.934;2023-07-28T05:05:12;3.70;;;1.53;;
22963;SDS011;11648;49.306;6.934;2023-07-28T05:07:39;3.53;;;1.50;;
22963;SDS011;11648;49.306;6.934;2023-07-28T05:10:06;3.67;;;1.70;;
22963;SDS011;11648;49.306;6.934;2023-07-28T05:12:34;2.60;;;1.60;;
22963;SDS011;11648;49.306;6.934;2023-07-28T05:15:01;2.80;;;1.53;;
22963;SDS011;11648;49.306;6.934;2023-07-28T05:17:27;3.40;;;1.70;;
22963;SDS011;11648;49.306;6.934;2023-07-28T05:20:14;2.60;;;1.73;;
22963;SDS011;11648;49.306;6.934;2023-07-28T05:22:53;2.63;;;1.70;;
22963;SDS011;11648;49.306;6.934;2023-07-28T05:25:22;3.70;;;1.50;;
22963;SDS011;11648;49.306;6.934;2023-07-28T05:27:49;4.20;;;1.90;;
22963;SDS011;11648;49.306;6.934;2023-07-28T05:30:16;2.93;;;1.83;;
22963;SDS011;11648;49.306;6.934;2023-07-28T05:32:43;4.23;;;1.90;;
22963;SDS011;11648;49.306;6.934;2023-07-28T05:35:23;2.60;;;1.67;;
22963;SDS011;11648;49.306;6.934;2023-07-28T05:37:50;3.17;;;2.00;;
22963;SDS011;11648;49.306;6.934;2023-07-28T05:40:17;3.30;;;2.07;;
22963;SDS011;11648;49.306;6.934;2023-07-28T05:42:44;3.87;;;2.03;;
22963;SDS011;11648;49.306;6.934;2023-07-28T05:45:11;3.10;;;2.10;;
22963;SDS011;11648;49.306;6.934;2023-07-28T05:47:38;3.93;;;2.00;;
22963;SDS011;11648;49.306;6.934;2023-07-28T05:50:05;3.97;;;2.30;;
22963;SDS011;11648;49.306;6.934;2023-07-28T05:52:32;3.13;;;2.03;;
22963;SDS011;11648;49.306;6.934;2023-07-28T05:54:59;3.90;;;2.00;;
22963;SDS011;11648;49.306;6.934;2023-07-28T05:57:26;3.40;;;2.30;;
22963;SDS011;11648;49.306;6.934;2023-07-28T05:59:52;4.17;;;2.37;;
22963;SDS011;11648;49.306;6.934;2023-07-28T06:02:19;3.00;;;1.80;;
22963;SDS011;11648;49.306;6.934;2023-07-28T06:04:52;3.37;;;2.07;;
22963;SDS011;11648;49.306;6.934;2023-07-28T06:07:19;2.80;;;1.90;;
22963;SDS011;11648;49.306;6.934;2023-07-28T06:09:46;2.53;;;1.90;;
22963;SDS011;11648;49.306;6.934;2023-07-28T06:12:13;4.03;;;2.17;;
22963;SDS011;11648;49.306;6.934;2023-07-28T06:14:40;2.93;;;1.90;;
22963;SDS011;11648;49.306;6.934;2023-07-28T06:17:08;3.27;;;1.67;;
22963;SDS011;11648;49.306;6.934;2023-07-28T06:19:36;2.93;;;1.73;;
22963;SDS011;11648;49.306;6.934;2023-07-28T06:22:05;3.17;;;1.90;;
22963;SDS011;11648;49.306;6.934;2023-07-28T06:24:36;4.23;;;1.90;;
22963;SDS011;11648;49.306;6.934;2023-07-28T06:27:03;3.23;;;1.90;;
22963;SDS011;11648;49.306;6.934;2023-07-28T06:29:36;4.43;;;2.00;;
22963;SDS011;11648;49.306;6.934;2023-07-28T06:32:03;3.57;;;1.90;;
22963;SDS011;11648;49.306;6.934;2023-07-28T06:34:30;3.00;;;1.90;;
22963;SDS011;11648;49.306;6.934;2023-07-28T06:36:57;3.47;;;2.00;;
22963;SDS011;11648;49.306;6.934;2023-07-28T06:39:24;3.63;;;1.90;;
22963;SDS011;11648;49.306;6.934;2023-07-28T06:41:51;4.13;;;2.20;;
22963;SDS011;11648;49.306;6.934;2023-07-28T06:44:18;4.93;;;2.30;;
22963;SDS011;11648;49.306;6.934;2023-07-28T06:46:45;3.43;;;2.20;;
22963;SDS011;11648;49.306;6.934;2023-07-28T06:49:11;3.57;;;2.20;;
22963;SDS011;11648;49.306;6.934;2023-07-28T06:51:39;5.80;;;2.43;;
22963;SDS011;11648;49.306;6.934;2023-07-28T06:54:05;5.07;;;3.33;;
22963;SDS011;11648;49.306;6.934;2023-07-28T06:56:39;5.37;;;3.53;;
22963;SDS011;11648;49.306;6.934;2023-07-28T06:59:06;4.10;;;3.20;;
22963;SDS011;11648;49.306;6.934;2023-07-28T07:01:41;3.30;;;2.70;;
22963;SDS011;11648;49.306;6.934;2023-07-28T07:04:08;4.33;;;2.70;;
22963;SDS011;11648;49.306;6.934;2023-07-28T07:06:35;3.67;;;2.30;;
22963;SDS011;11648;49.306;6.934;2023-07-28T07:09:01;4.67;;;2.90;;
22963;SDS011;11648;49.306;6.934;2023-07-28T07:11:29;4.10;;;2.50;;
22963;SDS011;11648;49.306;6.934;2023-07-28T07:13:56;4.77;;;2.40;;
22963;SDS011;11648;49.306;6.934;2023-07-28T07:16:23;3.50;;;2.30;;
22963;SDS011;11648;49.306;6.934;2023-07-28T07:18:53;4.67;;;2.63;;
22963;SDS011;11648;49.306;6.934;2023-07-28T07:21:20;3.87;;;2.10;;
22963;SDS011;11648;49.306;6.934;2023-07-28T07:23:46;4.50;;;2.50;;
22963;SDS011;11648;49.306;6.934;2023-07-28T07:26:26;4.13;;;2.23;;
22963;SDS011;11648;49.306;6.934;2023-07-28T07:28:53;3.97;;;2.50;;
22963;SDS011;11648;49.306;6.934;2023-07-28T07:31:19;4.80;;;2.93;;
22963;SDS011;11648;49.306;6.934;2023-07-28T07:33:46;4.73;;;2.80;;
22963;SDS011;11648;49.306;6.934;2023-07-28T07:36:14;4.17;;;2.50;;
22963;SDS011;11648;49.306;6.934;2023-07-28T07:38:43;4.07;;;2.70;;
22963;SDS011;11648;49.306;6.934;2023-07-28T07:41:13;5.80;;;2.70;;
22963;SDS011;11648;49.306;6.934;2023-07-28T07:43:46;5.43;;;2.67;;
22963;SDS011;11648;49.306;6.934;2023-07-28T07:46:14;4.13;;;3.00;;
22963;SDS011;11648;49.306;6.934;2023-07-28T07:48:41;4.23;;;2.83;;
22963;SDS011;11648;49.306;6.934;2023-07-28T07:51:08;4.20;;;2.60;;
22963;SDS011;11648;49.306;6.934;2023-07-28T07:53:35;5.73;;;3.57;;
22963;SDS011;11648;49.306;6.934;2023-07-28T07:56:03;4.67;;;3.00;;
22963;SDS011;11648;49.306;6.934;2023-07-28T07:58:30;7.07;;;3.10;;
22963;SDS011;11648;49.306;6.934;2023-07-28T08:00:57;4.47;;;3.07;;
22963;SDS011;11648;49.306;6.934;2023-07-28T08:03:24;5.03;;;3.40;;
22963;SDS011;11648;49.306;6.934;2023-07-28T08:05:51;4.70;;;3.20;;
22963;SDS011;11648;49.306;6.934;2023-07-28T08:08:18;4.60;;;3.10;;
22963;SDS011;11648;49.306;6.934;2023-07-28T08:10:46;4.40;;;2.93;;
22963;SDS011;11648;49.306;6.934;2023-07-28T08:13:14;5.00;;;2.73;;
22963;SDS011;11648;49.306;6.934;2023-07-28T08:15:44;4.97;;;2.80;;
22963;SDS011;11648;49.306;6.934;2023-07-28T08:18:12;3.63;;;2.30;;
22963;SDS011;11648;49.306;6.934;2023-07-28T08:20:39;3.20;;;2.40;;
22963;SDS011;11648;49.306;6.934;2023-07-28T08:23:06;4.17;;;2.60;;
22963;SDS011;11648;49.306;6.934;2023-07-28T08:25:34;3.47;;;2.30;;
22963;SDS011;11648;49.306;6.934;2023-07-28T08:28:03;2.83;;;2.30;;
22963;SDS011;11648;49.306;6.934;2023-07-28T08:30:30;3.60;;;2.50;;
22963;SDS011;11648;49.306;6.934;2023-07-28T08:32:58;3.97;;;2.20;;
22963;SDS011;11648;49.306;6.934;2023-07-28T08:35:25;4.00;;;2.30;;
22963;SDS011;11648;49.306;6.934;2023-07-28T08:37:52;6.13;;;2.20;;
22963;SDS011;11648;49.306;6.934;2023-07-28T08:40:19;5.90;;;1.90;;
22963;SDS011;11648;49.306;6.934;2023-07-28T08:42:46;3.43;;;1.90;;
22963;SDS011;11648;49.306;6.934;2023-07-28T08:45:13;3.47;;;1.80;;
22963;SDS011;11648;49.306;6.934;2023-07-28T08:47:40;2.30;;;1.40;;
22963;SDS011;11648;49.306;6.934;2023-07-28T08:50:07;2.30;;;1.30;;
22963;SDS011;11648;49.306;6.934;2023-07-28T08:52:34;2.33;;;1.20;;
22963;SDS011;11648;49.306;6.934;2023-07-28T08:55:01;2.23;;;1.30;;
22963;SDS011;11648;49.306;6.934;2023-07-28T08:57:27;2.43;;;1.27;;
22963;SDS011;11648;49.306;6.934;2023-07-28T08:59:55;2.50;;;1.40;;
22963;SDS011;11648;49.306;6.934;2023-07-28T09:02:22;2.03;;;1.20;;
22963;SDS011;11648;49.306;6.934;2023-07-28T09:04:49;1.80;;;1.20;;
22963;SDS011;11648;49.306;6.934;2023-07-28T09:07:16;1.93;;;1.20;;
22963;SDS011;11648;49.306;6.934;2023-07-28T09:09:43;3.73;;;1.60;;
22963;SDS011;11648;49.306;6.934;2023-07-28T09:12:10;3.63;;;1.20;;
22963;SDS011;11648;49.306;6.934;2023-07-28T09:14:37;2.53;;;1.13;;
22963;SDS011;11648;49.306;6.934;2023-07-28T09:17:08;3.17;;;1.67;;
22963;SDS011;11648;49.306;6.934;2023-07-28T09:19:49;2.30;;;1.30;;
22963;SDS011;11648;49.306;6.934;2023-07-28T09:22:19;2.03;;;1.37;;
22963;SDS011;11648;49.306;6.934;2023-07-28T09:24:47;2.30;;;1.20;;
22963;SDS011;11648;49.306;6.934;2023-07-28T09:27:21;1.53;;;0.90;;
22963;SDS011;11648;49.306;6.934;2023-07-28T09:29:50;2.70;;;0.97;;
22963;SDS011;11648;49.306;6.934;2023-07-28T09:32:28;2.50;;;1.10;;
22963;SDS011;11648;49.306;6.934;2023-07-28T09:35:07;3.37;;;1.00;;
22963;SDS011;11648;49.306;6.934;2023-07-28T09:37:40;3.13;;;1.10;;
22963;SDS011;11648;49.306;6.934;2023-07-28T09:40:08;2.53;;;1.13;;
22963;SDS011;11648;49.306;6.934;2023-07-28T09:42:38;2.70;;;1.40;;
22963;SDS011;11648;49.306;6.934;2023-07-28T09:45:06;2.00;;;1.37;;
22963;SDS011;11648;49.306;6.934;2023-07-28T09:47:52;2.50;;;1.20;;
22963;SDS011;11648;49.306;6.934;2023-07-28T09:50:24;2.13;;;1.20;;
22963;SDS011;11648;49.306;6.934;2023-07-28T09:52:54;2.17;;;1.27;;
22963;SDS011;11648;49.306;6.934;2023-07-28T09:55:27;2.63;;;1.40;;
22963;SDS011;11648;49.306;6.934;2023-07-28T09:57:55;2.50;;;1.20;;
22963;SDS011;11648;49.306;6.934;2023-07-28T10:00:24;1.97;;;1.33;;
22963;SDS011;11648;49.306;6.934;2023-07-28T10:02:52;2.63;;;1.50;;
22963;SDS011;11648;49.306;6.934;2023-07-28T10:05:19;2.77;;;1.50;;
22963;SDS011;11648;49.306;6.934;2023-07-28T10:07:48;5.27;;;1.80;;
22963;SDS011;11648;49.306;6.934;2023-07-28T10:10:15;2.87;;;1.63;;
22963;SDS011;11648;49.306;6.934;2023-07-28T10:12:46;2.57;;;1.60;;
22963;SDS011;11648;49.306;6.934;2023-07-28T10:15:18;1.90;;;1.40;;
22963;SDS011;11648;49.306;6.934;2023-07-28T10:17:51;2.63;;;1.60;;
22963;SDS011;11648;49.306;6.934;2023-07-28T10:20:37;2.37;;;1.40;;
22963;SDS011;11648;49.306;6.934;2023-07-28T10:23:15;2.80;;;1.43;;
22963;SDS011;11648;49.306;6.934;2023-07-28T10:25:43;2.87;;;1.67;;
22963;SDS011;11648;49.306;6.934;2023-07-28T10:28:29;3.50;;;1.70;;
22963;SDS011;11648;49.306;6.934;2023-07-28T10:30:59;4.67;;;1.97;;
22963;SDS011;11648;49.306;6.934;2023-07-28T10:36:11;3.57;;;1.87;;
22963;SDS011;11648;49.306;6.934;2023-07-28T10:39:00;3.30;;;1.93;;
22963;SDS011;11648;49.306;6.934;2023-07-28T10:41:27;3.27;;;1.67;;
22963;SDS011;11648;49.306;6.934;2023-07-28T10:43:53;3.10;;;1.87;;
22963;SDS011;11648;49.306;6.934;2023-07-28T10:46:21;3.00;;;1.93;;
22963;SDS011;11648;49.306;6.934;2023-07-28T10:48:48;3.53;;;1.63;;
22963;SDS011;11648;49.306;6.934;2023-07-28T10:51:23;3.73;;;1.60;;
22963;SDS011;11648;49.306;6.934;2023-07-28T10:53:54;2.23;;;1.50;;
22963;SDS011;11648;49.306;6.934;2023-07-28T10:56:22;3.23;;;1.60;;
22963;SDS011;11648;49.306;6.934;2023-07-28T10:58:56;2.93;;;1.53;;
22963;SDS011;11648;49.306;6.934;2023-07-28T11:01:45;2.07;;;1.57;;
22963;SDS011;11648;49.306;6.934;2023-07-28T11:06:47;3.13;;;1.63;;
22963;SDS011;11648;49.306;6.934;2023-07-28T11:09:18;4.53;;;2.17;;
22963;SDS011;11648;49.306;6.934;2023-07-28T11:11:46;3.23;;;1.40;;
22963;SDS011;11648;49.306;6.934;2023-07-28T11:14:14;3.07;;;1.37;;
22963;SDS011;11648;49.306;6.934;2023-07-28T11:16:42;2.27;;;1.13;;
22963;SDS011;11648;49.306;6.934;2023-07-28T11:19:11;1.53;;;1.10;;
22963;SDS011;11648;49.306;6.934;2023-07-28T11:21:41;4.70;;;1.50;;
22963;SDS011;11648;49.306;6.934;2023-07-28T11:24:08;2.53;;;1.43;;
22963;SDS011;11648;49.306;6.934;2023-07-28T11:26:38;2.43;;;1.40;;
22963;SDS011;11648;49.306;6.934;2023-07-28T11:29:06;5.37;;;1.47;;
22963;SDS011;11648;49.306;6.934;2023-07-28T11:31:33;3.50;;;1.67;;
22963;SDS011;11648;49.306;6.934;2023-07-28T11:34:00;2.47;;;1.20;;
22963;SDS011;11648;49.306;6.934;2023-07-28T11:36:28;1.87;;;1.37;;
22963;SDS011;11648;49.306;6.934;2023-07-28T11:38:59;2.17;;;1.40;;
22963;SDS011;11648;49.306;6.934;2023-07-28T11:41:27;2.40;;;1.33;;
22963;SDS011;11648;49.306;6.934;2023-07-28T11:43:54;1.87;;;1.10;;
22963;SDS011;11648;49.306;6.934;2023-07-28T11:46:37;2.30;;;1.30;;
22963;SDS011;11648;49.306;6.934;2023-07-28T11:49:24;2.73;;;1.40;;
22963;SDS011;11648;49.306;6.934;2023-07-28T11:51:51;1.90;;;1.30;;
22963;SDS011;11648;49.306;6.934;2023-07-28T11:54:21;2.20;;;1.50;;
22963;SDS011;11648;49.306;6.934;2023-07-28T11:56:50;3.40;;;1.50;;
22963;SDS011;11648;49.306;6.934;2023-07-28T11:59:18;2.83;;;1.43;;
22963;SDS011;11648;49.306;6.934;2023-07-28T12:01:53;2.57;;;1.33;;
22963;SDS011;11648;49.306;6.934;2023-07-28T12:04:26;2.00;;;1.03;;
22963;SDS011;11648;49.306;6.934;2023-07-28T12:12:16;3.17;;;1.50;;
22963;SDS011;11648;49.306;6.934;2023-07-28T12:14:47;2.30;;;1.30;;
22963;SDS011;11648;49.306;6.934;2023-07-28T12:17:34;1.80;;;1.10;;
22963;SDS011;11648;49.306;6.934;2023-07-28T12:20:06;2.30;;;1.10;;
22963;SDS011;11648;49.306;6.934;2023-07-28T12:22:38;1.70;;;1.00;;
22963;SDS011;11648;49.306;6.934;2023-07-28T12:25:07;2.00;;;1.20;;
22963;SDS011;11648;49.306;6.934;2023-07-28T12:27:34;1.97;;;1.30;;
22963;SDS011;11648;49.306;6.934;2023-07-28T12:30:02;1.67;;;0.97;;
22963;SDS011;11648;49.306;6.934;2023-07-28T12:32:30;2.20;;;1.17;;
22963;SDS011;11648;49.306;6.934;2023-07-28T12:35:00;2.23;;;1.30;;
22963;SDS011;11648;49.306;6.934;2023-07-28T12:37:40;2.90;;;1.00;;
22963;SDS011;11648;49.306;6.934;2023-07-28T12:40:11;1.27;;;0.77;;
22963;SDS011;11648;49.306;6.934;2023-07-28T12:42:58;3.00;;;1.50;;
22963;SDS011;11648;49.306;6.934;2023-07-28T12:45:31;2.00;;;0.93;;
22963;SDS011;11648;49.306;6.934;2023-07-28T12:48:18;2.00;;;0.83;;
22963;SDS011;11648;49.306;6.934;2023-07-28T12:50:47;1.73;;;1.00;;
22963;SDS011;11648;49.306;6.934;2023-07-28T12:53:14;1.40;;;0.87;;
22963;SDS011;11648;49.306;6.934;2023-07-28T12:55:48;2.13;;;1.10;;
22963;SDS011;11648;49.306;6.934;2023-07-28T12:58:18;1.60;;;0.90;;
22963;SDS011;11648;49.306;6.934;2023-07-28T13:00:47;1.67;;;0.93;;
22963;SDS011;11648;49.306;6.934;2023-07-28T13:03:17;3.27;;;1.10;;
22963;SDS011;11648;49.306;6.934;2023-07-28T13:05:44;1.60;;;1.07;;
22963;SDS011;11648;49.306;6.934;2023-07-28T13:08:10;2.77;;;1.20;;
22963;SDS011;11648;49.306;6.934;2023-07-28T13:10:37;1.60;;;1.00;;
22963;SDS011;11648;49.306;6.934;2023-07-28T13:13:07;1.70;;;0.90;;
22963;SDS011;11648;49.306;6.934;2023-07-28T13:15:39;1.47;;;1.00;;
22963;SDS011;11648;49.306;6.934;2023-07-28T13:18:06;1.57;;;0.90;;
22963;SDS011;11648;49.306;6.934;2023-07-28T13:20:33;4.83;;;1.20;;
22963;SDS011;11648;49.306;6.934;2023-07-28T13:23:00;2.00;;;1.20;;
22963;SDS011;11648;49.306;6.934;2023-07-28T13:25:27;2.07;;;1.20;;
22963;SDS011;11648;49.306;6.934;2023-07-28T13:27:54;2.80;;;1.30;;
22963;SDS011;11648;49.306;6.934;2023-07-28T13:30:21;1.73;;;1.07;;
22963;SDS011;11648;49.306;6.934;2023-07-28T13:32:48;2.53;;;1.10;;
22963;SDS011;11648;49.306;6.934;2023-07-28T13:35:15;2.17;;;1.00;;
22963;SDS011;11648;49.306;6.934;2023-07-28T13:37:42;1.50;;;1.00;;
22963;SDS011;11648;49.306;6.934;2023-07-28T13:40:09;2.93;;;0.90;;
22963;SDS011;11648;49.306;6.934;2023-07-28T13:42:38;1.93;;;0.80;;
22963;SDS011;11648;49.306;6.934;2023-07-28T13:45:06;0.87;;;0.67;;
22963;SDS011;11648;49.306;6.934;2023-07-28T13:47:33;1.50;;;0.70;;
22963;SDS011;11648;49.306;6.934;2023-07-28T13:50:01;1.07;;;0.60;;
22963;SDS011;11648;49.306;6.934;2023-07-28T13:52:27;1.40;;;0.70;;
22963;SDS011;11648;49.306;6.934;2023-07-28T13:54:55;1.33;;;0.70;;
22963;SDS011;11648;49.306;6.934;2023-07-28T13:57:24;1.40;;;0.63;;
22963;SDS011;11648;49.306;6.934;2023-07-28T13:59:51;1.20;;;0.70;;
22963;SDS011;11648;49.306;6.934;2023-07-28T14:02:18;2.03;;;0.67;;
22963;SDS011;11648;49.306;6.934;2023-07-28T14:04:45;1.20;;;0.70;;
22963;SDS011;11648;49.306;6.934;2023-07-28T14:07:11;1.20;;;0.77;;
22963;SDS011;11648;49.306;6.934;2023-07-28T14:09:38;1.87;;;0.70;;
22963;SDS011;11648;49.306;6.934;2023-07-28T14:12:05;1.57;;;0.80;;
22963;SDS011;11648;49.306;6.934;2023-07-28T14:14:33;1.40;;;0.60;;
22963;SDS011;11648;49.306;6.934;2023-07-28T14:17:00;1.10;;;0.60;;
22963;SDS011;11648;49.306;6.934;2023-07-28T14:19:27;2.60;;;0.70;;
22963;SDS011;11648;49.306;6.934;2023-07-28T14:21:53;1.20;;;0.60;;
22963;SDS011;11648;49.306;6.934;2023-07-28T14:24:20;1.10;;;0.70;;
22963;SDS011;11648;49.306;6.934;2023-07-28T14:26:47;0.97;;;0.50;;
22963;SDS011;11648;49.306;6.934;2023-07-28T14:29:13;1.20;;;0.60;;
22963;SDS011;11648;49.306;6.934;2023-07-28T14:31:40;2.17;;;0.53;;
22963;SDS011;11648;49.306;6.934;2023-07-28T14:34:07;1.37;;;0.60;;
22963;SDS011;11648;49.306;6.934;2023-07-28T14:36:34;1.00;;;0.50;;
22963;SDS011;11648;49.306;6.934;2023-07-28T14:39:02;1.23;;;0.60;;
22963;SDS011;11648;49.306;6.934;2023-07-28T14:41:29;1.10;;;0.60;;
22963;SDS011;11648;49.306;6.934;2023-07-28T14:43:56;1.00;;;0.50;;
22963;SDS011;11648;49.306;6.934;2023-07-28T14:46:23;0.60;;;0.40;;
22963;SDS011;11648;49.306;6.934;2023-07-28T14:48:52;0.97;;;0.53;;
22963;SDS011;11648;49.306;6.934;2023-07-28T14:51:20;2.20;;;0.70;;
22963;SDS011;11648;49.306;6.934;2023-07-28T14:53:47;1.70;;;0.80;;
22963;SDS011;11648;49.306;6.934;2023-07-28T14:56:15;1.47;;;0.77;;
22963;SDS011;11648;49.306;6.934;2023-07-28T14:58:43;4.27;;;1.00;;
22963;SDS011;11648;49.306;6.934;2023-07-28T15:01:10;1.23;;;0.87;;
22963;SDS011;11648;49.306;6.934;2023-07-28T15:03:38;3.67;;;1.00;;
22963;SDS011;11648;49.306;6.934;2023-07-28T15:06:06;2.27;;;1.00;;
22963;SDS011;11648;49.306;6.934;2023-07-28T15:08:33;2.60;;;0.87;;
22963;SDS011;11648;49.306;6.934;2023-07-28T15:11:00;3.17;;;0.90;;
22963;SDS011;11648;49.306;6.934;2023-07-28T15:13:27;2.00;;;0.80;;
22963;SDS011;11648;49.306;6.934;2023-07-28T15:15:54;1.77;;;0.80;;
22963;SDS011;11648;49.306;6.934;2023-07-28T15:18:21;1.63;;;0.70;;